sensor_id;sensor_type;location;lat;lon;timestamp;temperature;humidity
16980;DHT22;42288;52.182;21.156;2023-02-15T00:01:35;7.10;99.90
16980;DHT22;42288;52.182;21.156;2023-02-15T00:04:01;7.10;99.90
16980;DHT22;42288;52.182;21.156;2023-02-15T00:06:27;7.30;99.90
16980;DHT22;42288;52.182;21.156;2023-02-15T00:08:53;7.10;99.90
16980;DHT22;42288;52.182;21.156;2023-02-15T00:11:19;7.00;99.90
16980;DHT22;42288;52.182;21.156;2023-02-15T00:14:10;6.90;99.90
16980;DHT22;42288;52.182;21.156;2023-02-15T00:16:36;7.10;99.90
16980;DHT22;42288;52.182;21.156;2023-02-15T00:19:02;7.10;99.90
16980;DHT22;42288;52.182;21.156;2023-02-15T00:21:29;7.00;99.90
16980;DHT22;42288;52.182;21.156;2023-02-15T00:23:57;7.20;99.90
16980;DHT22;42288;52.182;21.156;2023-02-15T00:26:23;7.30;99.90
16980;DHT22;42288;52.182;21.156;2023-02-15T00:28:48;7.40;99.90
16980;DHT22;42288;52.182;21.156;2023-02-15T00:31:14;7.40;99.90
16980;DHT22;42288;52.182;21.156;2023-02-15T00:33:40;7.20;99.90
16980;DHT22;42288;52.182;21.156;2023-02-15T00:36:07;6.80;99.90
16980;DHT22;42288;52.182;21.156;2023-02-15T00:38:34;6.90;99.90
16980;DHT22;42288;52.182;21.156;2023-02-15T00:41:02;7.00;99.90
16980;DHT22;42288;52.182;21.156;2023-02-15T00:43:29;7.00;99.90
16980;DHT22;42288;52.182;21.156;2023-02-15T00:45:54;6.80;99.90
16980;DHT22;42288;52.182;21.156;2023-02-15T00:48:20;6.60;99.90
16980;DHT22;42288;52.182;21.156;2023-02-15T00:50:52;6.50;99.90
16980;DHT22;42288;52.182;21.156;2023-02-15T00:53:18;6.40;99.90
16980;DHT22;42288;52.182;21.156;2023-02-15T00:55:44;6.40;99.90
16980;DHT22;42288;52.182;21.156;2023-02-15T00:58:11;6.40;99.90
16980;DHT22;42288;52.182;21.156;2023-02-15T01:00:37;6.70;99.90
16980;DHT22;42288;52.182;21.156;2023-02-15T01:03:04;6.60;99.90
16980;DHT22;42288;52.182;21.156;2023-02-15T01:05:30;6.60;99.90
16980;DHT22;42288;52.182;21.156;2023-02-15T01:07:56;6.70;99.90
16980;DHT22;42288;52.182;21.156;2023-02-15T01:10:22;6.60;99.90
16980;DHT22;42288;52.182;21.156;2023-02-15T01:12:48;6.70;99.90
16980;DHT22;42288;52.182;21.156;2023-02-15T01:15:14;6.70;99.90
16980;DHT22;42288;52.182;21.156;2023-02-15T01:17:40;6.70;99.90
16980;DHT22;42288;52.182;21.156;2023-02-15T01:20:06;6.80;99.90
16980;DHT22;42288;52.182;21.156;2023-02-15T01:22:32;6.90;99.90
16980;DHT22;42288;52.182;21.156;2023-02-15T01:24:58;6.90;99.90
16980;DHT22;42288;52.182;21.156;2023-02-15T01:27:23;6.60;99.90
16980;DHT22;42288;52.182;21.156;2023-02-15T01:29:49;6.80;99.90
16980;DHT22;42288;52.182;21.156;2023-02-15T01:32:14;6.90;99.90
16980;DHT22;42288;52.182;21.156;2023-02-15T01:34:40;6.80;99.90
16980;DHT22;42288;52.182;21.156;2023-02-15T01:37:05;6.70;99.90
16980;DHT22;42288;52.182;21.156;2023-02-15T01:39:31;6.60;99.90
16980;DHT22;42288;52.182;21.156;2023-02-15T01:41:57;6.70;99.90
16980;DHT22;42288;52.182;21.156;2023-02-15T01:44:51;6.50;99.90
16980;DHT22;42288;52.182;21.156;2023-02-15T01:47:22;6.70;99.90
16980;DHT22;42288;52.182;21.156;2023-02-15T01:49:57;6.70;99.90
16980;DHT22;42288;52.182;21.156;2023-02-15T01:52:24;6.70;99.90
16980;DHT22;42288;52.182;21.156;2023-02-15T01:54:50;6.70;99.90
16980;DHT22;42288;52.182;21.156;2023-02-15T01:57:19;6.80;99.90
16980;DHT22;42288;52.182;21.156;2023-02-15T01:59:50;6.70;99.90
16980;DHT22;42288;52.182;21.156;2023-02-15T02:02:19;6.90;99.90
16980;DHT22;42288;52.182;21.156;2023-02-15T02:04:56;6.80;99.90
16980;DHT22;42288;52.182;21.156;2023-02-15T02:07:28;6.80;99.90
16980;DHT22;42288;52.182;21.156;2023-02-15T02:09:54;6.80;99.90
16980;DHT22;42288;52.182;21.156;2023-02-15T02:12:21;6.90;99.90
16980;DHT22;42288;52.182;21.156;2023-02-15T02:14:49;7.10;99.90
16980;DHT22;42288;52.182;21.156;2023-02-15T02:17:35;7.00;99.90
16980;DHT22;42288;52.182;21.156;2023-02-15T02:23:05;7.00;99.90
16980;DHT22;42288;52.182;21.156;2023-02-15T02:34:22;6.90;99.90
16980;DHT22;42288;52.182;21.156;2023-02-15T02:42:41;7.10;99.90
16980;DHT22;42288;52.182;21.156;2023-02-15T02:45:20;6.90;99.90
16980;DHT22;42288;52.182;21.156;2023-02-15T02:47:50;6.90;99.90
16980;DHT22;42288;52.182;21.156;2023-02-15T02:50:23;7.00;99.90
16980;DHT22;42288;52.182;21.156;2023-02-15T02:52:52;6.80;99.90
16980;DHT22;42288;52.182;21.156;2023-02-15T02:58:55;7.10;99.90
16980;DHT22;42288;52.182;21.156;2023-02-15T03:00:56;7.10;99.90
16980;DHT22;42288;52.182;21.156;2023-02-15T03:06:09;7.50;99.90
16980;DHT22;42288;52.182;21.156;2023-02-15T03:08:47;7.50;99.90
16980;DHT22;42288;52.182;21.156;2023-02-15T03:11:14;7.50;99.90
16980;DHT22;42288;52.182;21.156;2023-02-15T03:13:40;7.40;99.90
16980;DHT22;42288;52.182;21.156;2023-02-15T03:16:06;7.60;99.90
16980;DHT22;42288;52.182;21.156;2023-02-15T03:18:56;7.40;99.90
16980;DHT22;42288;52.182;21.156;2023-02-15T03:21:32;7.30;99.90
16980;DHT22;42288;52.182;21.156;2023-02-15T03:24:12;7.30;99.90
16980;DHT22;42288;52.182;21.156;2023-02-15T03:26:39;7.20;99.90
16980;DHT22;42288;52.182;21.156;2023-02-15T03:29:06;7.30;99.90
16980;DHT22;42288;52.182;21.156;2023-02-15T03:31:38;7.30;99.90
16980;DHT22;42288;52.182;21.156;2023-02-15T03:34:07;7.50;99.90
16980;DHT22;42288;52.182;21.156;2023-02-15T03:36:52;7.40;99.90
16980;DHT22;42288;52.182;21.156;2023-02-15T03:39:31;7.40;99.90
16980;DHT22;42288;52.182;21.156;2023-02-15T03:42:10;7.30;99.90
16980;DHT22;42288;52.182;21.156;2023-02-15T03:44:59;7.50;99.90
16980;DHT22;42288;52.182;21.156;2023-02-15T03:47:31;7.50;99.90
16980;DHT22;42288;52.182;21.156;2023-02-15T03:50:22;7.50;99.90
16980;DHT22;42288;52.182;21.156;2023-02-15T03:53:10;7.60;99.90
16980;DHT22;42288;52.182;21.156;2023-02-15T03:55:37;7.70;99.90
16980;DHT22;42288;52.182;21.156;2023-02-15T03:58:03;7.50;99.90
16980;DHT22;42288;52.182;21.156;2023-02-15T04:01:03;7.50;99.90
16980;DHT22;42288;52.182;21.156;2023-02-15T04:03:56;7.70;99.90
16980;DHT22;42288;52.182;21.156;2023-02-15T04:06:23;7.60;99.90
16980;DHT22;42288;52.182;21.156;2023-02-15T04:08:48;7.60;99.90
16980;DHT22;42288;52.182;21.156;2023-02-15T04:11:33;7.60;99.90
16980;DHT22;42288;52.182;21.156;2023-02-15T04:13:58;7.70;99.90
16980;DHT22;42288;52.182;21.156;2023-02-15T04:16:24;7.80;99.90
16980;DHT22;42288;52.182;21.156;2023-02-15T04:18:50;7.50;99.90
16980;DHT22;42288;52.182;21.156;2023-02-15T04:21:34;7.50;99.90
16980;DHT22;42288;52.182;21.156;2023-02-15T04:24:18;7.60;99.90
16980;DHT22;42288;52.182;21.156;2023-02-15T04:27:03;7.50;99.90
16980;DHT22;42288;52.182;21.156;2023-02-15T04:29:30;7.70;99.90
16980;DHT22;42288;52.182;21.156;2023-02-15T04:31:58;7.80;99.90
16980;DHT22;42288;52.182;21.156;2023-02-15T04:34:25;8.00;99.90
16980;DHT22;42288;52.182;21.156;2023-02-15T04:36:50;7.80;99.90
16980;DHT22;42288;52.182;21.156;2023-02-15T04:39:18;7.80;99.90
16980;DHT22;42288;52.182;21.156;2023-02-15T04:41:44;7.60;99.90
16980;DHT22;42288;52.182;21.156;2023-02-15T04:44:11;7.60;99.90
16980;DHT22;42288;52.182;21.156;2023-02-15T04:46:37;7.40;99.90
16980;DHT22;42288;52.182;21.156;2023-02-15T04:49:02;7.60;99.90
16980;DHT22;42288;52.182;21.156;2023-02-15T04:51:28;7.50;99.90
16980;DHT22;42288;52.182;21.156;2023-02-15T04:53:54;7.50;99.90
16980;DHT22;42288;52.182;21.156;2023-02-15T04:56:20;7.70;99.90
16980;DHT22;42288;52.182;21.156;2023-02-15T04:58:46;7.70;99.90
16980;DHT22;42288;52.182;21.156;2023-02-15T05:01:11;7.70;99.90
16980;DHT22;42288;52.182;21.156;2023-02-15T05:03:37;7.70;99.90
16980;DHT22;42288;52.182;21.156;2023-02-15T05:06:03;7.90;99.90
16980;DHT22;42288;52.182;21.156;2023-02-15T05:08:29;7.90;99.90
16980;DHT22;42288;52.182;21.156;2023-02-15T05:10:54;7.70;99.90
16980;DHT22;42288;52.182;21.156;2023-02-15T05:13:20;7.70;99.90
16980;DHT22;42288;52.182;21.156;2023-02-15T05:15:50;7.60;99.90
16980;DHT22;42288;52.182;21.156;2023-02-15T05:18:17;7.70;99.90
16980;DHT22;42288;52.182;21.156;2023-02-15T05:20:43;7.80;99.90
16980;DHT22;42288;52.182;21.156;2023-02-15T05:23:09;7.80;99.90
16980;DHT22;42288;52.182;21.156;2023-02-15T05:25:35;7.70;99.90
16980;DHT22;42288;52.182;21.156;2023-02-15T05:28:19;7.70;99.90
16980;DHT22;42288;52.182;21.156;2023-02-15T05:33:23;8.00;99.90
16980;DHT22;42288;52.182;21.156;2023-02-15T05:35:49;8.00;99.90
16980;DHT22;42288;52.182;21.156;2023-02-15T05:38:14;7.90;99.90
16980;DHT22;42288;52.182;21.156;2023-02-15T05:40:40;7.90;99.90
16980;DHT22;42288;52.182;21.156;2023-02-15T05:43:05;7.80;99.90
16980;DHT22;42288;52.182;21.156;2023-02-15T05:45:31;7.70;99.90
16980;DHT22;42288;52.182;21.156;2023-02-15T05:47:56;7.70;99.90
16980;DHT22;42288;52.182;21.156;2023-02-15T05:50:23;7.60;99.90
16980;DHT22;42288;52.182;21.156;2023-02-15T05:52:49;7.60;99.90
16980;DHT22;42288;52.182;21.156;2023-02-15T05:55:15;7.50;99.90
16980;DHT22;42288;52.182;21.156;2023-02-15T05:57:40;7.70;99.90
16980;DHT22;42288;52.182;21.156;2023-02-15T06:00:07;7.50;99.90
16980;DHT22;42288;52.182;21.156;2023-02-15T06:02:34;7.20;99.90
16980;DHT22;42288;52.182;21.156;2023-02-15T06:05:00;6.90;99.90
16980;DHT22;42288;52.182;21.156;2023-02-15T06:07:26;6.80;99.90
16980;DHT22;42288;52.182;21.156;2023-02-15T06:09:51;7.10;99.90
16980;DHT22;42288;52.182;21.156;2023-02-15T06:12:17;7.30;99.90
16980;DHT22;42288;52.182;21.156;2023-02-15T06:14:42;7.30;99.90
16980;DHT22;42288;52.182;21.156;2023-02-15T06:17:08;7.40;99.90
16980;DHT22;42288;52.182;21.156;2023-02-15T06:19:33;7.40;99.90
16980;DHT22;42288;52.182;21.156;2023-02-15T06:21:59;7.40;99.90
16980;DHT22;42288;52.182;21.156;2023-02-15T06:24:25;7.00;99.90
16980;DHT22;42288;52.182;21.156;2023-02-15T06:26:50;6.80;99.90
16980;DHT22;42288;52.182;21.156;2023-02-15T06:29:16;7.00;99.90
16980;DHT22;42288;52.182;21.156;2023-02-15T06:31:42;7.20;99.90
16980;DHT22;42288;52.182;21.156;2023-02-15T06:34:07;7.40;99.90
16980;DHT22;42288;52.182;21.156;2023-02-15T06:36:33;7.40;99.90
16980;DHT22;42288;52.182;21.156;2023-02-15T06:38:58;7.50;99.90
16980;DHT22;42288;52.182;21.156;2023-02-15T06:41:24;7.50;99.90
16980;DHT22;42288;52.182;21.156;2023-02-15T06:43:50;7.30;99.90
16980;DHT22;42288;52.182;21.156;2023-02-15T06:46:16;7.50;99.90
16980;DHT22;42288;52.182;21.156;2023-02-15T06:48:42;7.20;99.90
16980;DHT22;42288;52.182;21.156;2023-02-15T06:51:07;6.90;99.90
16980;DHT22;42288;52.182;21.156;2023-02-15T06:53:33;7.20;99.90
16980;DHT22;42288;52.182;21.156;2023-02-15T06:56:07;7.30;99.90
16980;DHT22;42288;52.182;21.156;2023-02-15T06:58:38;7.00;99.90
16980;DHT22;42288;52.182;21.156;2023-02-15T07:01:04;7.20;99.90
16980;DHT22;42288;52.182;21.156;2023-02-15T07:03:30;7.00;99.90
16980;DHT22;42288;52.182;21.156;2023-02-15T07:05:58;7.10;99.90
16980;DHT22;42288;52.182;21.156;2023-02-15T07:08:25;7.20;99.90
16980;DHT22;42288;52.182;21.156;2023-02-15T07:10:51;6.90;99.90
16980;DHT22;42288;52.182;21.156;2023-02-15T07:13:17;7.20;99.90
16980;DHT22;42288;52.182;21.156;2023-02-15T07:15:43;7.40;99.90
16980;DHT22;42288;52.182;21.156;2023-02-15T07:18:09;7.40;99.90
16980;DHT22;42288;52.182;21.156;2023-02-15T07:20:36;7.50;99.90
16980;DHT22;42288;52.182;21.156;2023-02-15T07:23:03;7.30;99.90
16980;DHT22;42288;52.182;21.156;2023-02-15T07:25:29;7.00;99.90
16980;DHT22;42288;52.182;21.156;2023-02-15T07:27:58;6.90;99.90
16980;DHT22;42288;52.182;21.156;2023-02-15T07:30:24;7.10;99.90
16980;DHT22;42288;52.182;21.156;2023-02-15T07:32:50;6.80;99.90
16980;DHT22;42288;52.182;21.156;2023-02-15T07:35:34;7.10;99.90
16980;DHT22;42288;52.182;21.156;2023-02-15T07:38:00;7.10;99.90
16980;DHT22;42288;52.182;21.156;2023-02-15T07:40:26;7.00;99.90
16980;DHT22;42288;52.182;21.156;2023-02-15T07:42:52;6.90;99.90
16980;DHT22;42288;52.182;21.156;2023-02-15T07:45:20;7.20;99.90
16980;DHT22;42288;52.182;21.156;2023-02-15T07:47:46;6.80;99.90
16980;DHT22;42288;52.182;21.156;2023-02-15T07:50:11;6.80;99.90
16980;DHT22;42288;52.182;21.156;2023-02-15T07:52:37;6.90;99.90
16980;DHT22;42288;52.182;21.156;2023-02-15T07:55:03;6.70;99.90
16980;DHT22;42288;52.182;21.156;2023-02-15T07:57:29;7.20;99.90
16980;DHT22;42288;52.182;21.156;2023-02-15T07:59:54;6.90;99.90
16980;DHT22;42288;52.182;21.156;2023-02-15T08:02:20;6.90;99.90
16980;DHT22;42288;52.182;21.156;2023-02-15T08:04:45;7.00;99.90
16980;DHT22;42288;52.182;21.156;2023-02-15T08:07:11;6.80;99.90
16980;DHT22;42288;52.182;21.156;2023-02-15T08:09:36;6.70;99.90
16980;DHT22;42288;52.182;21.156;2023-02-15T08:12:02;6.90;99.90
16980;DHT22;42288;52.182;21.156;2023-02-15T08:14:28;7.00;99.90
16980;DHT22;42288;52.182;21.156;2023-02-15T08:16:54;7.20;99.90
16980;DHT22;42288;52.182;21.156;2023-02-15T08:19:23;7.10;99.90
16980;DHT22;42288;52.182;21.156;2023-02-15T08:21:58;7.00;99.90
16980;DHT22;42288;52.182;21.156;2023-02-15T08:24:27;6.60;99.90
16980;DHT22;42288;52.182;21.156;2023-02-15T08:26:53;6.70;99.90
16980;DHT22;42288;52.182;21.156;2023-02-15T08:29:21;6.50;99.90
16980;DHT22;42288;52.182;21.156;2023-02-15T08:31:48;6.80;99.90
16980;DHT22;42288;52.182;21.156;2023-02-15T08:34:16;6.80;99.90
16980;DHT22;42288;52.182;21.156;2023-02-15T08:36:43;6.80;99.90
16980;DHT22;42288;52.182;21.156;2023-02-15T08:39:11;6.90;99.90
16980;DHT22;42288;52.182;21.156;2023-02-15T08:41:38;6.60;99.90
16980;DHT22;42288;52.182;21.156;2023-02-15T08:44:06;6.60;99.90
16980;DHT22;42288;52.182;21.156;2023-02-15T08:46:34;7.10;99.90
16980;DHT22;42288;52.182;21.156;2023-02-15T08:49:01;6.90;99.90
16980;DHT22;42288;52.182;21.156;2023-02-15T08:51:29;6.80;99.90
16980;DHT22;42288;52.182;21.156;2023-02-15T08:53:57;7.00;99.90
16980;DHT22;42288;52.182;21.156;2023-02-15T08:56:26;7.10;99.90
16980;DHT22;42288;52.182;21.156;2023-02-15T08:58:55;6.90;99.90
16980;DHT22;42288;52.182;21.156;2023-02-15T09:01:27;6.70;99.90
16980;DHT22;42288;52.182;21.156;2023-02-15T09:03:59;6.50;99.90
16980;DHT22;42288;52.182;21.156;2023-02-15T09:06:25;6.20;99.90
16980;DHT22;42288;52.182;21.156;2023-02-15T09:08:51;6.40;99.90
16980;DHT22;42288;52.182;21.156;2023-02-15T09:11:21;6.70;99.90
16980;DHT22;42288;52.182;21.156;2023-02-15T09:16:19;6.80;99.90
16980;DHT22;42288;52.182;21.156;2023-02-15T09:18:45;6.70;99.90
16980;DHT22;42288;52.182;21.156;2023-02-15T09:21:16;6.80;99.90
16980;DHT22;42288;52.182;21.156;2023-02-15T09:23:44;7.00;99.90
16980;DHT22;42288;52.182;21.156;2023-02-15T09:26:15;7.00;99.90
16980;DHT22;42288;52.182;21.156;2023-02-15T09:28:41;6.90;99.90
16980;DHT22;42288;52.182;21.156;2023-02-15T09:31:12;6.50;99.90
16980;DHT22;42288;52.182;21.156;2023-02-15T09:33:39;6.70;99.90
16980;DHT22;42288;52.182;21.156;2023-02-15T09:36:13;6.90;99.90
16980;DHT22;42288;52.182;21.156;2023-02-15T09:38:39;6.90;99.90
16980;DHT22;42288;52.182;21.156;2023-02-15T09:47:13;6.10;99.90
16980;DHT22;42288;52.182;21.156;2023-02-15T09:58:01;6.20;99.90
16980;DHT22;42288;52.182;21.156;2023-02-15T10:03:26;6.80;99.90
16980;DHT22;42288;52.182;21.156;2023-02-15T10:06:06;6.90;99.90
16980;DHT22;42288;52.182;21.156;2023-02-15T10:09:02;6.90;99.90
16980;DHT22;42288;52.182;21.156;2023-02-15T10:25:05;6.50;99.90
16980;DHT22;42288;52.182;21.156;2023-02-15T10:27:43;6.60;99.90
16980;DHT22;42288;52.182;21.156;2023-02-15T10:30:11;6.60;99.90
16980;DHT22;42288;52.182;21.156;2023-02-15T10:41:03;6.80;99.90
16980;DHT22;42288;52.182;21.156;2023-02-15T11:00:02;6.30;99.90
16980;DHT22;42288;52.182;21.156;2023-02-15T11:05:24;6.70;99.90
16980;DHT22;42288;52.182;21.156;2023-02-15T11:07:54;6.50;99.90
16980;DHT22;42288;52.182;21.156;2023-02-15T11:10:43;6.70;99.90
16980;DHT22;42288;52.182;21.156;2023-02-15T11:13:14;6.30;99.90
16980;DHT22;42288;52.182;21.156;2023-02-15T11:18:36;6.20;99.90
16980;DHT22;42288;52.182;21.156;2023-02-15T11:21:36;6.50;99.90
16980;DHT22;42288;52.182;21.156;2023-02-15T11:24:12;6.40;99.90
16980;DHT22;42288;52.182;21.156;2023-02-15T11:29:37;6.10;99.90
16980;DHT22;42288;52.182;21.156;2023-02-15T11:35:03;6.20;99.90
16980;DHT22;42288;52.182;21.156;2023-02-15T11:43:16;6.30;99.90
16980;DHT22;42288;52.182;21.156;2023-02-15T11:45:45;6.20;99.90
16980;DHT22;42288;52.182;21.156;2023-02-15T11:48:14;6.40;99.90
16980;DHT22;42288;52.182;21.156;2023-02-15T11:50:42;6.60;99.90
16980;DHT22;42288;52.182;21.156;2023-02-15T11:53:15;5.50;99.90
16980;DHT22;42288;52.182;21.156;2023-02-15T11:55:43;5.60;99.90
16980;DHT22;42288;52.182;21.156;2023-02-15T11:58:41;5.80;99.90
16980;DHT22;42288;52.182;21.156;2023-02-15T12:01:16;6.10;99.90
16980;DHT22;42288;52.182;21.156;2023-02-15T12:06:49;6.20;99.90
16980;DHT22;42288;52.182;21.156;2023-02-15T12:09:34;6.40;99.90
16980;DHT22;42288;52.182;21.156;2023-02-15T12:14:50;6.10;99.90
16980;DHT22;42288;52.182;21.156;2023-02-15T12:17:16;6.40;99.90
16980;DHT22;42288;52.182;21.156;2023-02-15T12:19:43;6.60;99.90
16980;DHT22;42288;52.182;21.156;2023-02-15T12:22:20;6.40;99.90
16980;DHT22;42288;52.182;21.156;2023-02-15T12:24:48;6.60;99.90
16980;DHT22;42288;52.182;21.156;2023-02-15T12:27:19;6.30;99.90
16980;DHT22;42288;52.182;21.156;2023-02-15T12:30:01;6.00;99.90
16980;DHT22;42288;52.182;21.156;2023-02-15T12:32:34;6.10;99.90
16980;DHT22;42288;52.182;21.156;2023-02-15T12:35:07;6.60;99.90
16980;DHT22;42288;52.182;21.156;2023-02-15T12:37:33;6.50;99.90
16980;DHT22;42288;52.182;21.156;2023-02-15T12:40:01;5.90;99.90
16980;DHT22;42288;52.182;21.156;2023-02-15T12:42:41;5.90;99.90
16980;DHT22;42288;52.182;21.156;2023-02-15T12:45:31;6.00;99.90
16980;DHT22;42288;52.182;21.156;2023-02-15T12:50:40;6.00;99.90
16980;DHT22;42288;52.182;21.156;2023-02-15T12:53:14;6.00;99.90
16980;DHT22;42288;52.182;21.156;2023-02-15T12:58:26;5.60;99.90
16980;DHT22;42288;52.182;21.156;2023-02-15T13:01:14;5.50;99.90
16980;DHT22;42288;52.182;21.156;2023-02-15T13:04:01;5.80;99.90
16980;DHT22;42288;52.182;21.156;2023-02-15T13:06:31;6.00;99.90
16980;DHT22;42288;52.182;21.156;2023-02-15T13:11:41;6.10;99.90
16980;DHT22;42288;52.182;21.156;2023-02-15T13:14:31;6.20;99.90
16980;DHT22;42288;52.182;21.156;2023-02-15T13:17:00;6.40;99.90
16980;DHT22;42288;52.182;21.156;2023-02-15T13:19:43;6.50;99.90
16980;DHT22;42288;52.182;21.156;2023-02-15T13:22:28;6.50;99.90
16980;DHT22;42288;52.182;21.156;2023-02-15T13:24:58;6.60;99.90
16980;DHT22;42288;52.182;21.156;2023-02-15T13:27:35;6.80;99.90
16980;DHT22;42288;52.182;21.156;2023-02-15T13:30:08;6.50;99.90
16980;DHT22;42288;52.182;21.156;2023-02-15T13:32:40;5.70;99.90
16980;DHT22;42288;52.182;21.156;2023-02-15T13:35:14;5.70;99.90
16980;DHT22;42288;52.182;21.156;2023-02-15T13:40:37;5.70;99.90
16980;DHT22;42288;52.182;21.156;2023-02-15T13:46:19;6.00;99.90
16980;DHT22;42288;52.182;21.156;2023-02-15T13:52:04;5.50;99.90
16980;DHT22;42288;52.182;21.156;2023-02-15T13:54:45;5.60;99.90
16980;DHT22;42288;52.182;21.156;2023-02-15T14:03:35;5.50;99.90
16980;DHT22;42288;52.182;21.156;2023-02-15T14:06:14;5.70;99.90
16980;DHT22;42288;52.182;21.156;2023-02-15T14:11:21;6.00;99.90
16980;DHT22;42288;52.182;21.156;2023-02-15T14:14:03;5.70;99.90
16980;DHT22;42288;52.182;21.156;2023-02-15T14:17:03;6.00;99.90
16980;DHT22;42288;52.182;21.156;2023-02-15T14:19:37;5.60;99.90
16980;DHT22;42288;52.182;21.156;2023-02-15T14:22:39;6.10;99.90
16980;DHT22;42288;52.182;21.156;2023-02-15T14:25:22;5.90;99.90
16980;DHT22;42288;52.182;21.156;2023-02-15T14:30:31;5.90;99.90
16980;DHT22;42288;52.182;21.156;2023-02-15T14:33:10;6.10;99.90
16980;DHT22;42288;52.182;21.156;2023-02-15T14:35:38;6.00;99.90
16980;DHT22;42288;52.182;21.156;2023-02-15T14:38:17;6.00;99.90
16980;DHT22;42288;52.182;21.156;2023-02-15T14:49:24;6.20;99.90
16980;DHT22;42288;52.182;21.156;2023-02-15T14:56:41;6.30;99.90
16980;DHT22;42288;52.182;21.156;2023-02-15T14:59:46;6.30;99.90
16980;DHT22;42288;52.182;21.156;2023-02-15T15:02:21;6.10;99.90
16980;DHT22;42288;52.182;21.156;2023-02-15T15:07:44;6.30;99.90
16980;DHT22;42288;52.182;21.156;2023-02-15T15:12:44;6.20;99.90
16980;DHT22;42288;52.182;21.156;2023-02-15T15:17:55;6.10;99.90
16980;DHT22;42288;52.182;21.156;2023-02-15T15:20:49;6.30;99.90
16980;DHT22;42288;52.182;21.156;2023-02-15T15:35:22;6.60;99.90
16980;DHT22;42288;52.182;21.156;2023-02-15T15:40:17;6.00;99.90
16980;DHT22;42288;52.182;21.156;2023-02-15T15:42:50;6.20;99.90
16980;DHT22;42288;52.182;21.156;2023-02-15T15:50:25;6.40;99.90
16980;DHT22;42288;52.182;21.156;2023-02-15T15:52:53;6.40;99.90
16980;DHT22;42288;52.182;21.156;2023-02-15T15:55:22;6.30;99.90
16980;DHT22;42288;52.182;21.156;2023-02-15T15:58:00;6.10;99.90
16980;DHT22;42288;52.182;21.156;2023-02-15T16:00:41;5.90;99.90
16980;DHT22;42288;52.182;21.156;2023-02-15T16:03:28;6.00;99.90
16980;DHT22;42288;52.182;21.156;2023-02-15T16:05:54;6.00;99.90
16980;DHT22;42288;52.182;21.156;2023-02-15T16:08:34;6.00;99.90
16980;DHT22;42288;52.182;21.156;2023-02-15T16:11:35;6.00;99.90
16980;DHT22;42288;52.182;21.156;2023-02-15T16:13:53;6.00;99.90
16980;DHT22;42288;52.182;21.156;2023-02-15T16:16:22;5.90;99.90
16980;DHT22;42288;52.182;21.156;2023-02-15T16:18:48;5.90;99.90
16980;DHT22;42288;52.182;21.156;2023-02-15T16:21:19;6.00;99.90
16980;DHT22;42288;52.182;21.156;2023-02-15T16:29:42;6.20;99.90
16980;DHT22;42288;52.182;21.156;2023-02-15T16:32:24;6.20;99.90
16980;DHT22;42288;52.182;21.156;2023-02-15T16:34:59;6.40;99.90
16980;DHT22;42288;52.182;21.156;2023-02-15T16:37:27;6.10;99.90
16980;DHT22;42288;52.182;21.156;2023-02-15T16:39:54;5.80;99.90
16980;DHT22;42288;52.182;21.156;2023-02-15T16:42:21;5.90;99.90
16980;DHT22;42288;52.182;21.156;2023-02-15T16:45:03;5.80;99.90
16980;DHT22;42288;52.182;21.156;2023-02-15T16:47:33;6.10;99.90
16980;DHT22;42288;52.182;21.156;2023-02-15T16:50:02;6.10;99.90
16980;DHT22;42288;52.182;21.156;2023-02-15T16:52:29;6.00;99.90
16980;DHT22;42288;52.182;21.156;2023-02-15T16:55:03;6.10;99.90
16980;DHT22;42288;52.182;21.156;2023-02-15T16:57:34;5.90;99.90
16980;DHT22;42288;52.182;21.156;2023-02-15T17:00:17;6.00;99.90
16980;DHT22;42288;52.182;21.156;2023-02-15T17:05:40;6.40;99.90
16980;DHT22;42288;52.182;21.156;2023-02-15T17:08:41;6.30;99.90
16980;DHT22;42288;52.182;21.156;2023-02-15T17:11:19;5.80;99.90
16980;DHT22;42288;52.182;21.156;2023-02-15T17:16:53;5.30;99.90
16980;DHT22;42288;52.182;21.156;2023-02-15T17:19:30;5.40;99.90
16980;DHT22;42288;52.182;21.156;2023-02-15T17:22:03;5.30;99.90
16980;DHT22;42288;52.182;21.156;2023-02-15T17:24:41;5.00;99.90
16980;DHT22;42288;52.182;21.156;2023-02-15T17:27:19;5.00;99.90
16980;DHT22;42288;52.182;21.156;2023-02-15T17:29:57;5.30;99.90
16980;DHT22;42288;52.182;21.156;2023-02-15T17:32:32;5.20;99.90
16980;DHT22;42288;52.182;21.156;2023-02-15T17:35:19;5.00;99.90
16980;DHT22;42288;52.182;21.156;2023-02-15T17:37:47;5.00;99.90
16980;DHT22;42288;52.182;21.156;2023-02-15T17:40:21;4.60;99.90
16980;DHT22;42288;52.182;21.156;2023-02-15T17:42:46;4.90;99.90
16980;DHT22;42288;52.182;21.156;2023-02-15T17:45:12;4.70;99.90
16980;DHT22;42288;52.182;21.156;2023-02-15T17:47:38;4.90;99.90
16980;DHT22;42288;52.182;21.156;2023-02-15T17:50:05;4.80;99.90
16980;DHT22;42288;52.182;21.156;2023-02-15T17:52:31;4.80;99.90
16980;DHT22;42288;52.182;21.156;2023-02-15T17:54:57;5.00;99.90
16980;DHT22;42288;52.182;21.156;2023-02-15T17:57:41;5.00;99.90
16980;DHT22;42288;52.182;21.156;2023-02-15T18:00:12;5.10;99.90
16980;DHT22;42288;52.182;21.156;2023-02-15T18:02:57;5.10;99.90
16980;DHT22;42288;52.182;21.156;2023-02-15T18:05:41;5.10;99.90
16980;DHT22;42288;52.182;21.156;2023-02-15T18:08:26;4.70;99.90
16980;DHT22;42288;52.182;21.156;2023-02-15T18:11:11;4.70;99.90
16980;DHT22;42288;52.182;21.156;2023-02-15T18:13:56;4.90;99.90
16980;DHT22;42288;52.182;21.156;2023-02-15T18:16:27;5.00;99.90
16980;DHT22;42288;52.182;21.156;2023-02-15T18:18:53;5.10;99.90
16980;DHT22;42288;52.182;21.156;2023-02-15T18:21:19;5.30;99.90
16980;DHT22;42288;52.182;21.156;2023-02-15T18:23:45;5.20;99.90
16980;DHT22;42288;52.182;21.156;2023-02-15T18:26:17;5.10;99.90
16980;DHT22;42288;52.182;21.156;2023-02-15T18:28:43;5.00;99.90
16980;DHT22;42288;52.182;21.156;2023-02-15T18:31:10;4.90;99.90
16980;DHT22;42288;52.182;21.156;2023-02-15T18:33:37;5.00;99.90
16980;DHT22;42288;52.182;21.156;2023-02-15T18:36:05;4.90;99.90
16980;DHT22;42288;52.182;21.156;2023-02-15T18:38:32;4.80;99.90
16980;DHT22;42288;52.182;21.156;2023-02-15T18:40:57;4.70;99.90
16980;DHT22;42288;52.182;21.156;2023-02-15T18:43:23;4.80;99.90
16980;DHT22;42288;52.182;21.156;2023-02-15T18:45:49;5.10;99.90
16980;DHT22;42288;52.182;21.156;2023-02-15T18:48:14;5.30;99.90
16980;DHT22;42288;52.182;21.156;2023-02-15T18:50:40;5.40;99.90
16980;DHT22;42288;52.182;21.156;2023-02-15T18:53:14;5.40;99.90
16980;DHT22;42288;52.182;21.156;2023-02-15T18:55:40;5.20;99.90
16980;DHT22;42288;52.182;21.156;2023-02-15T18:58:17;5.20;99.90
16980;DHT22;42288;52.182;21.156;2023-02-15T19:00:43;5.20;99.90
16980;DHT22;42288;52.182;21.156;2023-02-15T19:03:12;5.30;99.90